• Join FlightAware (Why Join?)
  • Login
  • US Flag 
04:00PM EDT


 

Airport Tracker/Info


-or-


 

Live Flight TrackerFlight Track Log ✈ LOF3376 ✈ 01-May-2013 ✈ KGRR - KORD

Flight Track Log - Related Links

Times and Time Zones

All times are in EDT time to prevent confusion due to time zone crossing. See the LOF3376 flight status page for this flight to view local times or setup timezone preferences in your user account.

Time Position Orientation Groundspeed Altitude Reporting Facility
EDT Latitude Longitude Course Direction KTS MPH feet Rate Location/Type
05:59AM 42.8467 -85.5347 248° West 191 220 2,500  Level Chicago Center
06:00AM 42.8267 -85.6014 248° West 195 224 4,800 2,340 Climbing Chicago Center
06:01AM 42.7847 -85.7537 249° West  Level FlightAware Approximate
06:01AM 42.8028 -85.6775 247° West 211 243 7,300  Level Chicago Center
06:02AM 42.7549 -85.8284 216° Southwest  Level FlightAware Approximate
06:02AM 42.7767 -85.7608 247° West 230 265 9,900  Level Chicago Center
06:03AM 42.7281 -85.9065 248° West  Level FlightAware Approximate
06:03AM 42.7492 -85.8475 247° West 243 280 12,300  Level Chicago Center
06:04AM 42.7038 -85.9874 248° West  Level FlightAware Approximate
06:04AM 42.7206 -85.9417 248° West 259 298 13,900  Level Chicago Center
06:05AM 42.6878 -86.0486 247° West 298 343 15,400 1,080 Climbing Chicago Center
06:06AM 42.6650 -86.1658 255° West 318 366 16,100 300 Climbing Chicago Center
06:07AM 42.6433 -86.2872 256° West 327 376 16,100  Level Chicago Center
06:08AM 42.6203 -86.4061 255° West 327 376 16,100  Level Chicago Center
06:09AM 42.5975 -86.5278 256° West 331 381 16,100 -120 Level Chicago Center
06:10AM 42.5739 -86.6475 255° West 330 380 15,900 -840 Descending Chicago Center
06:11AM 42.5511 -86.7669 256° West 329 379 14,500 -1,440 Descending Chicago Center
06:12AM 42.5214 -86.8731 249° West 306 352 13,000 -1,500 Descending Chicago Center
06:13AM 42.4914 -86.9800 249° West 304 350 11,500 -1,020 Descending Chicago Center
06:14AM 42.4617 -87.0889 250° West 307 353 11,000 -300 Descending Chicago Center
06:15AM 42.4289 -87.2050 249° West 277 319 11,000 -540 Level Chicago Center
06:16AM 42.4025 -87.2994 249° West 269 310 10,000 -1,020 Descending Chicago Center
06:17AM 42.3775 -87.3953 251° West 270 311 9,000 -900 Descending Chicago Center
06:18AM 42.3564 -87.4761 251° West 245 282 8,300 -1,020 Descending Chicago Center
06:19AM 42.3167 -87.5383 229° Southwest 227 261 7,000 -900 Descending Chicago Center
06:20AM 42.2694 -87.5922 220° Southwest 224 258 6,600 -480 Descending Chicago Center
06:21AM 42.2264 -87.6417 220° Southwest 208 239 6,100 -840 Descending Chicago Center
06:22AM 42.1897 -87.6836 220° Southwest 179 206 5,000 -900 Descending Chicago Center
06:23AM 42.1536 -87.7236 219° Southwest 171 197 4,300 -720 Descending Chicago Center
06:24AM 42.1167 -87.7667 221° Southwest 164 189 3,600 -780 Descending Chicago TRACON
06:25AM 42.0667 -87.8167 217° Southwest 156 180 2,600 -840 Descending Chicago TRACON
06:26AM 42.0500 -87.8500 236° Southwest 124 143 1,800 -840 Descending Chicago TRACON